createdAt,value
2018-09-21T00:00:54.626Z,100728.24
2018-09-21T00:04:05.194Z,100716.57
2018-09-21T00:07:10.733Z,100712.51
2018-09-21T00:10:16.160Z,100712.55
2018-09-21T00:13:21.489Z,100709.42
2018-09-21T00:16:26.861Z,100699.25
2018-09-21T00:19:32.678Z,100700.46
2018-09-21T00:22:38.017Z,100692.89
2018-09-21T00:25:43.366Z,100689.88
2018-09-21T00:28:48.770Z,100685.84
2018-09-21T00:31:54.170Z,100680.66
2018-09-21T00:34:59.543Z,100677.08
2018-09-21T00:38:05.010Z,100673.99
2018-09-21T00:41:10.422Z,100665.38
2018-09-21T00:44:15.794Z,100662.09
2018-09-21T00:47:22.186Z,100655.44
2018-09-21T00:50:27.545Z,100656.27
2018-09-21T00:53:32.901Z,100642.01
2018-09-21T00:56:38.312Z,100636.47
2018-09-21T00:59:43.805Z,100630.27
2018-09-21T01:02:49.361Z,100629.17
2018-09-21T01:05:54.738Z,100632.78
2018-09-21T01:09:00.122Z,100624.36
2018-09-21T01:12:05.490Z,100625.67
2018-09-21T01:15:10.828Z,100618.66
2018-09-21T01:18:16.837Z,100612.83
2018-09-21T01:21:22.214Z,100616.47
2018-09-21T01:24:27.644Z,100617.92
2018-09-21T01:27:33.131Z,100613.91
2018-09-21T01:30:38.594Z,100608.92
2018-09-21T01:33:43.994Z,100599.80
2018-09-21T01:36:49.870Z,100603.04
2018-09-21T01:39:55.226Z,100597.29
2018-09-21T01:43:00.684Z,100590.34
2018-09-21T01:46:06.594Z,100591.03
2018-09-21T01:49:12.093Z,100587.91
2018-09-21T01:52:17.450Z,100576.37
2018-09-21T01:55:22.815Z,100573.48
2018-09-21T01:58:28.290Z,100562.59
2018-09-21T02:01:33.645Z,100552.39
2018-09-21T02:04:39.942Z,100549.69
2018-09-21T02:07:45.386Z,100553.11
2018-09-21T02:10:50.745Z,100551.08
2018-09-21T02:13:56.111Z,100541.22
2018-09-21T02:17:01.571Z,100538.36
2018-09-21T02:20:06.914Z,100531.29
2018-09-21T02:23:12.258Z,100520.45
2018-09-21T02:26:17.734Z,100513.83
2018-09-21T02:29:23.206Z,100508.75
2018-09-21T02:32:28.596Z,100498.88
2018-09-21T02:35:33.947Z,100498.11
2018-09-21T02:38:39.406Z,100494.92
2018-09-21T02:41:44.762Z,100492.23
2018-09-21T02:44:50.246Z,100490.59
2018-09-21T02:47:55.767Z,100490.97
2018-09-21T02:51:01.214Z,100487.96
2018-09-21T02:54:07.506Z,100486.55
2018-09-21T02:57:13.210Z,100475.61
2018-09-21T03:00:18.871Z,100473.20
2018-09-21T03:03:24.377Z,100468.38
2018-09-21T03:06:29.747Z,100455.77
2018-09-21T03:09:35.207Z,100458.13
2018-09-21T03:12:40.562Z,100441.94
2018-09-21T03:15:45.902Z,100445.80
2018-09-21T03:18:51.367Z,100432.02
2018-09-21T03:21:56.758Z,100421.27
2018-09-21T03:25:02.450Z,100417.05
2018-09-21T03:28:07.889Z,100409.52
2018-09-21T03:31:13.239Z,100414.69
2018-09-21T03:34:18.636Z,100399.81
2018-09-21T03:37:24.202Z,100407.00
2018-09-21T03:40:29.746Z,100400.69
2018-09-21T03:43:35.210Z,100391.30
2018-09-21T03:46:40.751Z,100383.89
2018-09-21T03:49:46.202Z,100367.44
2018-09-21T03:52:51.641Z,100359.56
2018-09-21T03:55:57.693Z,100354.70
2018-09-21T03:59:03.483Z,100347.14
2018-09-21T04:02:08.845Z,100333.55
2018-09-21T04:05:16.298Z,100334.59
2018-09-21T04:08:21.769Z,100319.98
2018-09-21T04:11:27.298Z,100310.89
2018-09-21T04:14:32.702Z,100304.30
2018-09-21T04:17:38.382Z,100302.31
2018-09-21T04:20:45.934Z,100275.14
2018-09-21T04:23:51.311Z,100268.34
2018-09-21T04:26:56.774Z,100259.77
2018-09-21T04:30:02.262Z,100255.24
2018-09-21T04:33:08.026Z,100253.44
2018-09-21T04:36:13.466Z,100255.88
2018-09-21T04:39:19.237Z,100260.45
2018-09-21T04:42:24.575Z,100258.22
2018-09-21T04:45:30.426Z,100244.09
2018-09-21T04:48:35.961Z,100234.80
2018-09-21T04:51:41.706Z,100227.84
2018-09-21T04:54:47.054Z,100218.28
2018-09-21T04:57:52.548Z,100204.00
2018-09-21T05:00:57.996Z,100193.37
2018-09-21T05:04:03.364Z,100191.97
2018-09-21T05:07:08.761Z,100183.05
2018-09-21T05:10:14.122Z,100165.34
2018-09-21T05:13:19.610Z,100165.88
2018-09-21T05:16:25.034Z,100171.47
2018-09-21T05:19:30.584Z,100156.64
2018-09-21T05:22:35.921Z,100157.08
2018-09-21T05:25:41.359Z,100143.85
2018-09-21T05:28:46.978Z,100140.13
2018-09-21T05:31:52.345Z,100136.38
2018-09-21T05:34:57.848Z,100124.27
2018-09-21T05:38:03.477Z,100126.30
2018-09-21T05:41:08.958Z,100118.91
2018-09-21T05:44:14.421Z,100121.25
2018-09-21T05:47:20.003Z,100122.30
2018-09-21T05:50:25.474Z,100130.73
2018-09-21T05:53:30.827Z,100128.37
2018-09-21T05:56:36.311Z,100120.02
2018-09-21T05:59:41.738Z,100124.20
2018-09-21T06:02:47.159Z,100109.92
2018-09-21T06:05:52.742Z,100095.15
2018-09-21T06:08:58.222Z,100098.87
2018-09-21T06:12:03.694Z,100093.28
2018-09-21T06:15:11.151Z,100096.67
2018-09-21T06:18:16.814Z,100076.62
2018-09-21T06:21:22.629Z,100082.23
2018-09-21T06:24:28.030Z,100057.14
2018-09-21T06:27:33.451Z,100066.80
2018-09-21T06:30:38.871Z,100063.57
2018-09-21T06:33:44.238Z,100053.86
2018-09-21T06:36:49.627Z,100055.50
2018-09-21T06:39:54.985Z,100034.69
2018-09-21T06:43:00.325Z,100023.37
2018-09-21T06:46:05.705Z,100019.23
2018-09-21T06:49:11.141Z,100024.08
2018-09-21T06:52:16.562Z,100009.22
2018-09-21T06:55:21.937Z,100007.25
2018-09-21T06:58:27.470Z,100015.89
2018-09-21T07:01:32.962Z,100012.92
2018-09-21T07:04:38.432Z,100005.66
2018-09-21T07:07:44.227Z,100003.59
2018-09-21T07:10:49.769Z,99997.82
2018-09-21T07:13:55.146Z,99993.17
2018-09-21T07:17:00.774Z,99995.82
2018-09-21T07:20:06.331Z,99992.55
2018-09-21T07:23:11.766Z,99999.83
2018-09-21T07:26:17.170Z,100004.14
2018-09-21T07:29:22.593Z,100002.34
2018-09-21T07:32:28.047Z,100009.28
2018-09-21T07:35:33.470Z,100001.36
2018-09-21T07:38:38.894Z,99999.55
2018-09-21T07:41:44.292Z,99998.23
2018-09-21T07:44:49.943Z,99996.73
2018-09-21T07:47:55.366Z,100003.50
2018-09-21T07:51:00.746Z,100000.50
2018-09-21T07:54:06.105Z,99986.20
2018-09-21T07:57:11.508Z,99978.22
2018-09-21T08:00:16.887Z,99985.67
2018-09-21T08:03:22.316Z,99971.50
2018-09-21T08:06:27.690Z,99967.01
2018-09-21T08:09:34.703Z,99985.64
2018-09-21T08:12:40.098Z,99967.00
2018-09-21T08:15:45.490Z,99970.27
2018-09-21T08:18:50.900Z,99953.08
2018-09-21T08:21:56.322Z,99940.16
2018-09-21T08:25:01.735Z,99939.49
2018-09-21T08:28:07.322Z,99926.67
2018-09-21T08:31:12.720Z,99934.44
2018-09-21T08:34:18.049Z,99924.83
2018-09-21T08:37:23.483Z,99931.75
2018-09-21T08:40:29.203Z,99933.35
2018-09-21T08:43:34.614Z,99946.56
2018-09-21T08:46:40.449Z,99947.52
2018-09-21T08:49:45.819Z,99940.41
2018-09-21T08:52:51.179Z,99937.39
2018-09-21T08:55:56.533Z,99925.02
2018-09-21T08:59:02.411Z,99943.61
2018-09-21T09:02:07.779Z,99942.41
2018-09-21T09:05:13.222Z,99954.33
2018-09-21T09:08:18.599Z,99956.28
2018-09-21T09:11:23.977Z,99952.87
2018-09-21T09:14:29.383Z,99944.22
2018-09-21T09:17:34.750Z,99955.16
2018-09-21T09:20:40.111Z,99958.75
2018-09-21T09:23:45.606Z,99960.90
2018-09-21T09:26:51.078Z,99964.72
2018-09-21T09:29:56.496Z,99949.14
2018-09-21T09:33:02.086Z,99958.75
2018-09-21T09:36:07.524Z,99974.02
2018-09-21T09:39:14.257Z,99972.66
2018-09-21T09:42:20.175Z,99974.95
2018-09-21T09:45:25.838Z,99971.33
2018-09-21T09:48:31.263Z,99982.49
2018-09-21T09:51:36.838Z,99972.40
2018-09-21T09:54:42.301Z,99980.95
2018-09-21T09:57:47.917Z,99972.44
2018-09-21T10:00:54.280Z,99979.37
2018-09-21T10:03:59.755Z,99988.73
2018-09-21T10:07:05.709Z,99974.23
2018-09-21T10:10:11.159Z,99982.41
2018-09-21T10:13:16.758Z,99978.69
2018-09-21T10:16:22.697Z,99995.02
2018-09-21T10:19:28.308Z,99971.55
2018-09-21T10:22:33.722Z,99973.08
2018-09-21T10:25:39.086Z,99950.55
2018-09-21T10:28:44.693Z,99961.84
2018-09-21T10:31:50.132Z,99955.41
2018-09-21T10:34:55.622Z,99935.88
2018-09-21T10:38:01.017Z,99937.20
2018-09-21T10:41:06.575Z,99937.55
2018-09-21T10:44:11.954Z,99945.03
2018-09-21T10:47:17.303Z,99949.20
2018-09-21T10:50:22.842Z,99976.36
2018-09-21T10:53:28.335Z,100062.80
2018-09-21T10:56:33.754Z,100082.23
2018-09-21T10:59:39.134Z,100109.52
2018-09-21T11:02:44.522Z,100116.14
2018-09-21T11:05:49.903Z,100121.44
2018-09-21T11:08:55.321Z,100107.92
2018-09-21T11:12:00.726Z,100117.63
2018-09-21T11:15:06.196Z,100124.19
2018-09-21T11:18:11.629Z,100135.95
2018-09-21T11:21:16.986Z,100147.00
2018-09-21T11:24:22.366Z,100175.27
2018-09-21T11:27:27.775Z,100184.11
2018-09-21T11:30:33.171Z,100184.41
2018-09-21T11:33:38.601Z,100176.28
2018-09-21T11:36:43.958Z,100173.19
2018-09-21T11:39:49.351Z,100161.24
2018-09-21T11:42:54.708Z,100167.92
2018-09-21T11:46:00.133Z,100175.06
2018-09-21T11:49:05.754Z,100180.54
2018-09-21T11:52:11.167Z,100197.23
2018-09-21T11:55:16.597Z,100210.50
2018-09-21T11:58:21.981Z,100248.49
2018-09-21T12:01:27.445Z,100244.56
2018-09-21T12:04:32.845Z,100235.86
2018-09-21T12:07:38.210Z,100238.86
2018-09-21T12:10:43.648Z,100241.92
2018-09-21T12:13:50.859Z,100220.84
2018-09-21T12:16:56.245Z,100225.97
2018-09-21T12:20:01.928Z,100230.00
2018-09-21T12:23:07.598Z,100233.00
2018-09-21T12:26:12.998Z,100240.86
2018-09-21T12:29:18.491Z,100246.92
2018-09-21T12:32:23.879Z,100259.09
2018-09-21T12:35:29.245Z,100253.61
2018-09-21T12:38:35.007Z,100256.22
2018-09-21T12:41:40.559Z,100235.49
2018-09-21T12:44:46.375Z,100238.94
2018-09-21T12:47:51.972Z,100274.00
2018-09-21T12:50:57.399Z,100298.91
2018-09-21T12:54:02.955Z,100299.14
2018-09-21T12:57:08.647Z,100276.40
2018-09-21T13:00:14.022Z,100272.56
2018-09-21T13:03:19.730Z,100276.39
2018-09-21T13:06:25.124Z,100282.22
2018-09-21T13:09:30.701Z,100288.88
2018-09-21T13:12:37.692Z,100305.23
2018-09-21T13:15:43.047Z,100298.08
2018-09-21T13:18:48.398Z,100288.06
2018-09-21T13:21:53.749Z,100290.91
2018-09-21T13:24:59.106Z,100305.59
2018-09-21T13:28:04.617Z,100311.31
2018-09-21T13:31:10.363Z,100311.66
2018-09-21T13:34:25.108Z,100284.70
2018-09-21T13:37:30.570Z,100297.72
2018-09-21T13:40:35.917Z,100296.86
2018-09-21T13:43:41.245Z,100296.36
2018-09-21T13:46:46.594Z,100304.45
2018-09-21T13:49:52.090Z,100293.95
2018-09-21T13:52:57.410Z,100295.52
2018-09-21T13:56:02.897Z,100313.89
2018-09-21T13:59:08.298Z,100315.34
2018-09-21T14:02:13.850Z,100316.28
2018-09-21T14:05:19.260Z,100314.86
2018-09-21T14:08:24.902Z,100321.77
2018-09-21T14:11:30.278Z,100335.02
2018-09-21T14:14:35.598Z,100333.11
2018-09-21T14:17:41.056Z,100346.95
2018-09-21T14:20:46.487Z,100340.62
2018-09-21T14:23:51.834Z,100346.59
2018-09-21T14:26:57.305Z,100350.66
2018-09-21T14:30:02.774Z,100351.73
2018-09-21T14:33:08.369Z,100351.12
2018-09-21T14:36:13.720Z,100350.88
2018-09-21T14:39:19.069Z,100373.67
2018-09-21T14:42:24.542Z,100381.06
2018-09-21T14:45:29.883Z,100376.19
2018-09-21T14:48:35.336Z,100371.78
2018-09-21T14:51:40.709Z,100376.78
2018-09-21T14:54:46.038Z,100381.69
2018-09-21T14:57:51.533Z,100385.13
2018-09-21T15:00:56.926Z,100382.98
2018-09-21T15:04:02.478Z,100385.35
2018-09-21T15:07:07.958Z,100385.73
2018-09-21T15:10:13.286Z,100386.45
2018-09-21T15:13:18.638Z,100396.81
2018-09-21T15:16:24.265Z,100388.22
2018-09-21T15:19:29.768Z,100401.48
2018-09-21T15:22:46.822Z,100404.79
2018-09-21T15:25:52.177Z,100403.44
2018-09-21T15:28:57.751Z,100411.78
2018-09-21T15:32:03.180Z,100416.32
2018-09-21T15:35:08.549Z,100426.02
2018-09-21T15:38:13.982Z,100425.20
2018-09-21T15:41:21.299Z,100440.14
2018-09-21T15:44:26.642Z,100430.46
2018-09-21T15:47:32.067Z,100430.81
2018-09-21T15:50:37.428Z,100442.73
2018-09-21T15:53:42.798Z,100435.44
2018-09-21T15:56:48.165Z,100438.30
2018-09-21T15:59:53.550Z,100438.74
2018-09-21T16:02:59.005Z,100436.94
2018-09-21T16:06:04.768Z,100431.73
2018-09-21T16:09:10.290Z,100431.34
2018-09-21T16:12:15.666Z,100435.18
2018-09-21T16:15:21.026Z,100445.44
2018-09-21T16:18:26.398Z,100444.81
2018-09-21T16:21:31.771Z,100448.98
2018-09-21T16:24:37.120Z,100451.66
2018-09-21T16:27:42.494Z,100445.78
2018-09-21T16:30:47.928Z,100445.69
2018-09-21T16:33:53.344Z,100448.16
2018-09-21T16:37:00.806Z,100455.20
2018-09-21T16:40:06.202Z,100460.94
2018-09-21T16:43:12.441Z,100467.48
2018-09-21T16:46:23.866Z,100465.20
2018-09-21T16:49:29.327Z,100476.27
2018-09-21T16:52:34.777Z,100483.55
2018-09-21T16:55:40.238Z,100485.67
2018-09-21T16:58:45.648Z,100491.98
2018-09-21T17:01:51.158Z,100498.27
2018-09-21T17:04:56.570Z,100503.19
2018-09-21T17:08:02.077Z,100503.66
2018-09-21T17:11:07.822Z,100508.18
2018-09-21T17:14:13.750Z,100520.89
2018-09-21T17:17:19.129Z,100519.91
2018-09-21T17:20:24.487Z,100533.21
2018-09-21T17:23:29.842Z,100542.54
2018-09-21T17:26:35.184Z,100544.43
2018-09-21T17:29:40.761Z,100545.42
2018-09-21T17:32:46.139Z,100554.50
2018-09-21T17:35:51.490Z,100559.20
2018-09-21T17:38:56.853Z,100563.70
2018-09-21T17:42:02.176Z,100565.91
2018-09-21T17:45:08.058Z,100571.98
2018-09-21T17:48:13.401Z,100568.18
2018-09-21T17:51:18.767Z,100569.23
2018-09-21T17:54:24.121Z,100569.66
2018-09-21T17:57:29.550Z,100581.92
2018-09-21T18:00:34.915Z,100593.68
2018-09-21T18:03:40.291Z,100604.30
2018-09-21T18:06:46.565Z,100611.19
2018-09-21T18:09:53.265Z,100610.59
2018-09-21T18:12:58.588Z,100614.52
2018-09-21T18:16:04.341Z,100608.34
2018-09-21T18:19:09.859Z,100614.26
2018-09-21T18:22:15.188Z,100618.79
2018-09-21T18:25:20.528Z,100626.52
2018-09-21T18:28:25.942Z,100632.77
2018-09-21T18:31:31.351Z,100642.94
2018-09-21T18:34:36.956Z,100649.63
2018-09-21T18:37:42.318Z,100662.59
2018-09-21T18:40:47.947Z,100656.92
2018-09-21T18:43:53.501Z,100670.36
2018-09-21T18:46:58.874Z,100667.36
2018-09-21T18:50:04.294Z,100682.02
2018-09-21T18:53:09.730Z,100676.99
2018-09-21T18:56:15.090Z,100688.37
2018-09-21T18:59:20.449Z,100690.55
2018-09-21T19:02:25.893Z,100696.14
2018-09-21T19:05:31.283Z,100695.99
2018-09-21T19:08:37.026Z,100715.84
2018-09-21T19:11:42.423Z,100710.60
2018-09-21T19:14:47.769Z,100713.61
2018-09-21T19:17:53.146Z,100713.75
2018-09-21T19:20:58.646Z,100717.20
2018-09-21T19:24:03.984Z,100725.44
2018-09-21T19:27:09.369Z,100737.60
2018-09-21T19:30:14.739Z,100722.33
2018-09-21T19:33:20.261Z,100740.08
2018-09-21T19:36:25.641Z,100751.47
2018-09-21T19:39:30.991Z,100736.24
2018-09-21T19:42:36.617Z,100739.70
2018-09-21T19:45:42.189Z,100737.57
2018-09-21T19:48:47.708Z,100751.03
2018-09-21T19:51:53.037Z,100756.11
2018-09-21T19:54:58.458Z,100750.92
2018-09-21T19:58:04.010Z,100758.66
2018-09-21T20:01:09.347Z,100769.42
2018-09-21T20:04:14.852Z,100775.67
2018-09-21T20:07:20.385Z,100785.77
2018-09-21T20:10:25.823Z,100781.00
2018-09-21T20:13:31.169Z,100804.58
2018-09-21T20:16:36.610Z,100786.75
2018-09-21T20:19:42.190Z,100802.23
2018-09-21T20:22:47.514Z,100795.97
2018-09-21T20:25:52.992Z,100827.87
2018-09-21T20:28:58.502Z,100827.19
2018-09-21T20:32:09.190Z,100834.19
2018-09-21T20:35:14.574Z,100838.27
2018-09-21T20:38:20.029Z,100839.34
2018-09-21T20:41:25.513Z,100842.72
2018-09-21T20:44:30.865Z,100834.96
2018-09-21T20:47:37.459Z,100842.97
2018-09-21T20:50:44.986Z,100840.84
2018-09-21T20:53:50.370Z,100860.06
2018-09-21T20:56:55.760Z,100855.48
2018-09-21T21:00:01.150Z,100858.71
2018-09-21T21:03:06.554Z,100850.53
2018-09-21T21:06:11.914Z,100859.55
2018-09-21T21:09:17.363Z,100856.52
2018-09-21T21:12:22.685Z,100861.14
2018-09-21T21:15:28.054Z,100862.38
2018-09-21T21:18:33.825Z,100861.78
2018-09-21T21:21:39.208Z,100859.52
2018-09-21T21:24:44.570Z,100846.65
2018-09-21T21:27:50.148Z,100858.58
2018-09-21T21:30:55.557Z,100869.64
2018-09-21T21:34:00.942Z,100865.84
2018-09-21T21:37:06.682Z,100876.29
2018-09-21T21:40:12.066Z,100890.00
2018-09-21T21:43:17.399Z,100890.80
2018-09-21T21:46:22.757Z,100896.70
2018-09-21T21:49:28.189Z,100911.56
2018-09-21T21:52:36.320Z,100909.80
2018-09-21T21:55:41.876Z,100912.94
2018-09-21T21:58:47.298Z,100905.12
2018-09-21T22:01:52.687Z,100898.39
2018-09-21T22:04:58.042Z,100906.13
2018-09-21T22:08:03.394Z,100908.90
2018-09-21T22:11:12.804Z,100898.70
2018-09-21T22:14:18.129Z,100901.14
2018-09-21T22:17:23.553Z,100910.18
2018-09-21T22:20:28.894Z,100912.54
2018-09-21T22:23:34.208Z,100908.51
2018-09-21T22:26:39.556Z,100901.04
2018-09-21T22:29:44.878Z,100906.34
2018-09-21T22:32:50.249Z,100928.70
2018-09-21T22:35:55.617Z,100904.86
2018-09-21T22:39:01.755Z,100892.61
2018-09-21T22:42:07.746Z,100909.97
2018-09-21T22:45:13.165Z,100915.52
2018-09-21T22:48:18.588Z,100904.70
2018-09-21T22:51:23.987Z,100902.56
2018-09-21T22:54:29.321Z,100908.23
2018-09-21T22:57:34.769Z,100913.91
2018-09-21T23:00:40.229Z,100918.19
2018-09-21T23:03:45.604Z,100924.39
2018-09-21T23:06:50.978Z,100913.23
2018-09-21T23:09:56.317Z,100916.58
2018-09-21T23:13:01.683Z,100928.23
2018-09-21T23:16:07.204Z,100912.83
2018-09-21T23:19:12.643Z,100919.71
2018-09-21T23:22:18.069Z,100925.69
2018-09-21T23:25:23.534Z,100925.38
2018-09-21T23:28:28.966Z,100929.07
2018-09-21T23:31:34.433Z,100931.16
2018-09-21T23:34:39.783Z,100926.84
2018-09-21T23:37:45.497Z,100931.67
2018-09-21T23:40:51.206Z,100940.33
2018-09-21T23:43:56.540Z,100938.47
2018-09-21T23:47:02.005Z,100947.20
2018-09-21T23:50:07.427Z,100935.11
2018-09-21T23:53:12.857Z,100934.28
2018-09-21T23:56:18.290Z,100952.05
2018-09-21T23:59:23.729Z,100938.81
